Time;durP1;ratioP1;P1;durP2;ratioP2;P2;SDS_P1;SDS_P2;PMS_P1;PMS_P2;Temp;Humidity;BMP_temperature;BMP_pressure;BME280_temperature;BME280_humidity;BME280_pressure;Samples;Min_cycle;Max_cycle;Signal;HPM_P1;HPM_P2
2021/09/12 00:02:25;;;;;;;4.80;2.60;;;14.60;99.90;;;;;;20907723;28;20100;-76
2021/09/12 00:12:27;;;;;;;4.07;2.63;;;14.00;99.90;;;;;;20881818;28;20029;-77
2021/09/12 00:22:27;;;;;;;3.50;2.50;;;14.10;99.90;;;;;;20898678;28;20037;-78
2021/09/12 00:32:28;;;;;;;5.00;2.83;;;14.60;99.90;;;;;;20919670;28;20106;-78
2021/09/12 00:42:29;;;;;;;4.87;2.40;;;14.70;99.90;;;;;;20900324;28;20035;-78
2021/09/12 00:52:33;;;;;;;4.20;2.53;;;14.80;99.90;;;;;;20916496;28;20099;-77
2021/09/12 01:02:34;;;;;;;6.00;2.65;;;14.20;99.90;;;;;;20914374;28;20419;-78
2021/09/12 01:12:36;;;;;;;9.97;2.17;;;14.20;99.90;;;;;;20898372;28;20040;-78
2021/09/12 01:22:37;;;;;;;4.35;2.40;;;14.10;99.90;;;;;;20913064;28;20033;-78
2021/09/12 01:32:38;;;;;;;3.30;2.30;;;13.70;99.90;;;;;;20878567;28;20064;-77
2021/09/12 01:42:39;;;;;;;3.60;2.33;;;13.70;99.90;;;;;;20911869;28;20582;-78
2021/09/12 01:52:40;;;;;;;5.70;2.70;;;13.50;99.90;;;;;;20908635;28;20040;-77
2021/09/12 02:02:41;;;;;;;5.67;3.27;;;13.30;99.90;;;;;;20910557;28;20028;-77
2021/09/12 02:12:41;;;;;;;3.10;2.70;;;13.40;99.90;;;;;;20907803;28;20071;-77
2021/09/12 02:22:42;;;;;;;3.10;2.67;;;13.80;99.90;;;;;;20875835;28;20534;-78
2021/09/12 02:32:43;;;;;;;5.60;2.40;;;14.10;99.90;;;;;;20889486;28;20574;-78
2021/09/12 02:42:44;;;;;;;3.93;2.47;;;14.20;99.90;;;;;;20920789;28;20036;-77
2021/09/12 02:52:45;;;;;;;5.17;2.70;;;13.70;99.90;;;;;;20923119;28;20041;-78
2021/09/12 03:02:46;;;;;;;7.27;2.57;;;13.30;99.90;;;;;;20909470;28;20036;-78
2021/09/12 03:12:46;;;;;;;4.53;2.90;;;13.00;99.90;;;;;;20908957;28;20538;-78
2021/09/12 03:22:47;;;;;;;4.37;2.93;;;13.10;99.90;;;;;;20911897;28;20056;-78
2021/09/12 03:32:48;;;;;;;7.27;2.43;;;12.90;99.90;;;;;;20927408;28;20506;-78
2021/09/12 03:42:49;;;;;;;7.57;2.83;;;12.80;99.90;;;;;;20925953;28;20056;-78
2021/09/12 03:52:50;;;;;;;4.37;3.50;;;12.50;99.90;;;;;;20926855;28;20584;-78
2021/09/12 04:02:50;;;;;;;7.07;3.90;;;12.50;99.90;;;;;;20925534;28;20606;-78
2021/09/12 04:12:52;;;;;;;6.50;3.70;;;12.50;99.90;;;;;;20911581;28;20519;-78
2021/09/12 04:22:52;;;;;;;44.17;4.38;;;12.60;99.90;;;;;;20907823;28;20037;-78
2021/09/12 04:32:53;;;;;;;5.47;3.27;;;12.60;99.90;;;;;;20914673;28;20039;-77
2021/09/12 04:42:54;;;;;;;5.27;3.73;;;12.30;99.90;;;;;;20898948;28;20095;-77
2021/09/12 04:52:55;;;;;;;5.37;3.83;;;12.10;99.90;;;;;;20917667;28;20032;-78
2021/09/12 05:02:56;;;;;;;4.30;3.20;;;12.10;99.90;;;;;;20939884;28;20029;-79
2021/09/12 05:12:56;;;;;;;4.53;3.73;;;12.00;99.90;;;;;;20920812;28;20044;-79
2021/09/12 05:22:57;;;;;;;4.47;3.53;;;12.20;99.90;;;;;;20937700;28;20120;-79
2021/09/12 05:32:58;;;;;;;5.93;3.90;;;12.00;99.90;;;;;;20914841;28;20033;-78
2021/09/12 05:42:59;;;;;;;4.73;3.40;;;12.00;99.90;;;;;;20915913;28;20116;-79
2021/09/12 05:53:09;;;;;;;7.30;3.77;;;12.10;99.90;;;;;;21127204;22;20089;-83
2021/09/12 06:03:10;;;;;;;7.07;3.97;;;12.30;99.90;;;;;;21129370;28;20041;-84
2021/09/12 06:13:11;;;;;;;8.47;3.73;;;12.50;99.90;;;;;;21128072;28;20035;-82
2021/09/12 06:23:12;;;;;;;7.20;3.73;;;12.70;99.90;;;;;;21167419;28;20027;-81
2021/09/12 06:33:13;;;;;;;5.03;3.70;;;13.50;99.90;;;;;;21144499;28;20516;-80
2021/09/12 06:43:14;;;;;;;8.13;3.53;;;14.60;99.90;;;;;;21161389;28;20103;-85
2021/09/12 06:53:15;;;;;;;4.30;3.23;;;15.00;99.90;;;;;;21141093;28;20039;-83
2021/09/12 07:03:16;;;;;;;4.87;3.23;;;15.00;99.90;;;;;;21157259;28;20362;-81
2021/09/12 07:13:16;;;;;;;6.87;3.57;;;15.30;99.90;;;;;;21138996;28;20057;-82
2021/09/12 07:23:17;;;;;;;7.27;3.27;;;16.90;99.90;;;;;;21155002;28;20051;-80
2021/09/12 07:33:18;;;;;;;5.40;2.90;;;17.60;99.90;;;;;;21219062;27;20037;-80
2021/09/12 07:43:19;;;;;;;3.97;2.80;;;18.40;99.90;;;;;;21240619;27;20051;-83
2021/09/12 07:53:20;;;;;;;6.25;2.78;;;19.20;99.90;;;;;;21133605;28;20028;-81
2021/09/12 08:03:21;;;;;;;7.10;2.67;;;19.90;99.90;;;;;;21150581;28;20042;-83
2021/09/12 08:13:24;;;;;;;3.05;2.53;;;19.80;99.90;;;;;;21170208;28;20055;-82
2021/09/12 08:23:24;;;;;;;4.53;2.10;;;20.60;99.90;;;;;;21150469;28;20035;-81
2021/09/12 08:33:26;;;;;;;5.80;2.00;;;21.90;99.90;;;;;;21133208;28;20060;-83
2021/09/12 08:43:27;;;;;;;;;;;22.60;99.90;;;;;;21165872;28;20038;-84
2021/09/12 08:53:28;;;;;;;2.90;1.80;;;22.60;99.90;;;;;;21128809;28;20341;-83
2021/09/12 09:03:39;;;;;;;3.17;1.90;;;24.00;99.90;;;;;;21145028;28;20178;-82
2021/09/12 09:13:40;;;;;;;;;;;24.10;99.90;;;;;;21146699;28;20308;-82
2021/09/12 09:23:44;;;;;;;3.40;2.40;;;25.10;99.90;;;;;;21163951;28;19912;-83
2021/09/12 09:33:45;;;;;;;4.43;2.60;;;25.10;99.90;;;;;;21169417;27;20440;-81
2021/09/12 09:43:50;;;;;;;5.40;2.85;;;24.30;99.90;;;;;;21230387;27;20035;-83
2021/09/12 09:53:51;;;;;;;5.50;2.40;;;25.10;99.90;;;;;;21210660;27;20038;-84
2021/09/12 10:03:53;;;;;;;3.15;2.28;;;25.20;99.90;;;;;;21227948;27;20050;-81
2021/09/12 10:13:55;;;;;;;4.22;2.35;;;25.70;99.90;;;;;;21253697;27;20043;-81
2021/09/12 10:24:07;;;;;;;3.20;1.60;;;26.20;99.90;;;;;;21250174;28;20038;-82
2021/09/12 10:34:13;;;;;;;2.45;1.58;;;25.90;99.90;;;;;;21225794;28;20031;-83
2021/09/12 10:44:14;;;;;;;3.13;1.67;;;26.10;99.90;;;;;;21206417;28;20041;-83
2021/09/12 10:54:15;;;;;;;3.20;1.70;;;27.20;99.90;;;;;;21204370;28;20122;-84
2021/09/12 11:04:18;;;;;;;2.22;1.50;;;27.50;99.90;;;;;;21204663;28;20061;-85
2021/09/12 11:14:19;;;;;;;3.25;1.27;;;27.90;99.90;;;;;;21216546;27;20039;-84
2021/09/12 11:24:24;;;;;;;2.92;1.40;;;27.80;99.90;;;;;;21219099;27;20050;-84
2021/09/12 11:34:25;;;;;;;2.50;1.33;;;27.80;99.90;;;;;;21218801;27;20030;-84
2021/09/12 11:44:46;;;;;;;3.08;1.60;;;28.90;99.90;;;;;;21253538;27;20102;-84
2021/09/12 11:54:47;;;;;;;1.40;1.27;;;27.80;99.90;;;;;;21218315;27;20041;-84
2021/09/12 12:04:48;;;;;;;3.17;1.50;;;27.50;99.90;;;;;;21217849;27;20031;-84
2021/09/12 12:14:58;;;;;;;1.80;1.33;;;29.00;99.90;;;;;;21179020;27;20028;-84
2021/09/12 12:24:59;;;;;;;2.88;1.67;;;28.30;99.90;;;;;;21165803;27;20020;-84
2021/09/12 12:35:13;;;;;;;2.25;1.60;;;27.80;99.90;;;;;;21145518;27;20042;-81
2021/09/12 12:45:20;;;;;;;1.70;1.50;;;27.30;99.90;;;;;;21099373;28;20500;-80
2021/09/12 12:55:21;;;;;;;1.88;1.63;;;26.50;99.90;;;;;;21135760;27;20020;-82
2021/09/12 13:05:23;;;;;;;3.20;2.30;;;26.50;99.90;;;;;;21125310;27;20460;-83
2021/09/12 13:15:25;;;;;;;2.83;1.95;;;26.90;99.90;;;;;;21217627;27;20027;-81
2021/09/12 13:25:27;;;;;;;2.70;1.58;;;26.80;99.90;;;;;;21173011;27;20051;-85
2021/09/12 13:35:28;;;;;;;2.05;1.42;;;27.80;99.90;;;;;;21128510;27;20138;-85
2021/09/12 13:45:29;;;;;;;2.22;1.60;;;28.10;99.90;;;;;;21159068;27;20130;-85
2021/09/12 13:55:34;;;;;;;2.72;1.70;;;29.00;99.90;;;;;;21106346;27;20134;-85
2021/09/12 14:05:34;;;;;;;3.45;1.60;;;28.40;99.90;;;;;;21191311;27;20042;-84
2021/09/12 14:15:35;;;;;;;19.73;7.70;;;28.20;99.90;;;;;;21192946;27;20043;-85
2021/09/12 14:25:36;;;;;;;3.40;2.03;;;28.40;99.90;;;;;;21191371;28;20035;-85
2021/09/12 14:35:38;;;;;;;2.50;1.30;;;28.50;99.90;;;;;;21104968;28;20771;-85
2021/09/12 14:45:39;;;;;;;1.25;1.15;;;28.20;99.90;;;;;;21097106;28;20609;-84
2021/09/12 14:55:40;;;;;;;2.95;1.67;;;27.80;99.90;;;;;;21124776;28;20415;-84
2021/09/12 15:05:44;;;;;;;2.97;1.85;;;25.80;99.90;;;;;;21175774;27;20027;-85
2021/09/12 15:15:45;;;;;;;6.05;1.90;;;26.40;99.90;;;;;;21205205;27;20035;-85
2021/09/12 15:25:47;;;;;;;8.18;2.92;;;27.90;99.90;;;;;;21183233;27;20085;-85
2021/09/12 15:35:48;;;;;;;2.65;1.90;;;27.50;99.90;;;;;;21143384;27;20118;-85
2021/09/12 15:45:48;;;;;;;1.95;1.35;;;27.00;99.90;;;;;;21201367;27;20122;-84
2021/09/12 15:55:49;;;;;;;1.85;1.30;;;26.50;99.90;;;;;;21185589;27;20061;-81
2021/09/12 16:05:50;;;;;;;1.83;1.63;;;25.60;99.90;;;;;;21172962;27;20055;-81
2021/09/12 16:15:51;;;;;;;;;;;24.60;99.90;;;;;;21147249;27;20373;-83
2021/09/12 16:25:52;;;;;;;2.20;1.70;;;24.20;99.90;;;;;;21161221;27;19911;-83
2021/09/12 16:35:53;;;;;;;2.97;2.00;;;23.90;99.90;;;;;;21173637;27;20289;-81
2021/09/12 16:56:01;;;;;;;5.57;2.00;;;22.70;99.90;;;;;;21130871;28;20039;-83
2021/09/12 17:06:02;;;;;;;4.87;2.07;;;22.90;99.90;;;;;;21152423;27;20111;-82
2021/09/12 17:16:03;;;;;;;3.93;2.23;;;22.30;99.90;;;;;;21105753;28;20032;-81
2021/09/12 17:26:04;;;;;;;3.00;2.38;;;21.90;99.90;;;;;;21075257;28;20036;-81
2021/09/12 17:36:05;;;;;;;7.50;2.35;;;21.00;99.90;;;;;;21092443;27;20065;-83
2021/09/12 17:46:06;;;;;;;3.23;2.60;;;20.00;99.90;;;;;;21160959;27;20027;-81
2021/09/12 17:56:07;;;;;;;4.00;2.57;;;19.90;99.90;;;;;;21191072;27;20038;-82
2021/09/12 18:06:08;;;;;;;3.73;2.50;;;19.40;99.90;;;;;;21158952;28;20039;-82
2021/09/12 18:16:09;;;;;;;3.40;2.50;;;19.00;99.90;;;;;;21173241;28;20031;-82
2021/09/12 18:26:10;;;;;;;4.77;2.80;;;18.50;99.90;;;;;;21134949;28;20269;-81
2021/09/12 18:36:11;;;;;;;4.35;3.05;;;18.20;99.90;;;;;;21137060;28;20104;-84
2021/09/12 18:46:12;;;;;;;4.63;3.50;;;17.90;99.90;;;;;;21170307;28;20031;-82
2021/09/12 18:56:14;;;;;;;4.33;3.43;;;17.60;99.90;;;;;;21139338;28;20039;-82
2021/09/12 19:06:16;;;;;;;8.32;3.33;;;17.50;99.90;;;;;;21138720;28;20028;-82
2021/09/12 19:16:18;;;;;;;5.32;3.25;;;17.40;99.90;;;;;;21138796;28;20055;-82
2021/09/12 19:26:19;;;;;;;5.78;3.78;;;17.20;99.90;;;;;;21160029;28;20035;-83
2021/09/12 19:36:21;;;;;;;6.90;4.40;;;16.90;99.90;;;;;;21165508;28;20034;-82
2021/09/12 19:46:21;;;;;;;5.30;3.60;;;16.90;99.90;;;;;;21151808;28;20039;-85
2021/09/12 19:56:22;;;;;;;5.40;3.63;;;16.60;99.90;;;;;;21166665;28;20034;-83
2021/09/12 20:06:24;;;;;;;5.30;3.80;;;16.30;99.90;;;;;;21146138;28;20031;-83
2021/09/12 20:16:25;;;;;;;4.82;3.45;;;16.50;99.90;;;;;;21145667;28;20062;-83
2021/09/12 20:26:26;;;;;;;4.67;3.13;;;16.50;99.90;;;;;;21151141;27;20075;-85
2021/09/12 20:36:27;;;;;;;4.80;3.77;;;16.30;99.90;;;;;;21164404;27;20713;-83
2021/09/12 20:46:27;;;;;;;5.27;4.00;;;16.20;99.90;;;;;;21120917;28;20126;-84
2021/09/12 20:56:28;;;;;;;4.67;3.97;;;16.00;99.90;;;;;;21123534;27;20093;-85
2021/09/12 21:06:29;;;;;;;10.73;4.30;;;15.70;99.90;;;;;;21129186;27;20031;-81
2021/09/12 21:16:30;;;;;;;5.47;3.90;;;15.40;99.90;;;;;;21101304;27;20050;-81
2021/09/12 21:26:31;;;;;;;6.40;4.40;;;15.20;99.90;;;;;;21063517;28;20513;-82
2021/09/12 21:36:32;;;;;;;6.83;4.10;;;15.40;99.90;;;;;;21097771;27;20019;-82
2021/09/12 21:46:33;;;;;;;8.67;3.77;;;15.10;99.90;;;;;;21073670;28;20032;-82
2021/09/12 21:56:34;;;;;;;6.77;4.00;;;14.90;99.90;;;;;;21011899;28;20056;-81
2021/09/12 22:06:35;;;;;;;8.07;4.50;;;14.90;99.90;;;;;;21041525;28;20048;-83
2021/09/12 22:16:36;;;;;;;5.10;4.13;;;14.70;99.90;;;;;;21060796;28;20035;-85
2021/09/12 22:26:39;;;;;;;5.88;4.25;;;14.60;99.90;;;;;;21080381;28;20107;-85
2021/09/12 22:36:41;;;;;;;5.20;4.28;;;14.70;99.90;;;;;;21115754;28;20074;-83
2021/09/12 22:46:42;;;;;;;8.60;4.90;;;14.50;99.90;;;;;;21111523;28;20028;-82
2021/09/12 22:56:43;;;;;;;7.83;5.37;;;14.20;99.90;;;;;;21098688;28;20028;-83
2021/09/12 23:06:43;;;;;;;6.30;3.97;;;14.20;99.90;;;;;;21107644;27;20069;-83
2021/09/12 23:16:44;;;;;;;8.47;5.90;;;14.10;99.90;;;;;;21155818;28;20429;-83
2021/09/12 23:26:45;;;;;;;6.70;5.40;;;13.80;99.90;;;;;;21153787;28;20031;-83
2021/09/12 23:36:46;;;;;;;7.10;4.83;;;13.90;99.90;;;;;;21153252;28;20388;-83
2021/09/12 23:46:47;;;;;;;11.30;5.40;;;14.00;99.90;;;;;;21118366;22;20078;-78
2021/09/12 23:56:48;;;;;;;10.87;6.07;;;13.80;99.90;;;;;;20938495;28;20088;-78
